sensor_id;sensor_type;location;lat;lon;timestamp;pressure;altitude;pressure_sealevel;temperature;humidity
17383;BME280;8809;51.892;8.384;2024-01-07T00:01:46;100551.75;;;3.15;100.00
17383;BME280;8809;51.892;8.384;2024-01-07T00:04:16;100559.31;;;3.25;100.00
17383;BME280;8809;51.892;8.384;2024-01-07T00:06:43;100549.69;;;3.23;100.00
17383;BME280;8809;51.892;8.384;2024-01-07T00:09:11;100560.91;;;3.23;100.00
17383;BME280;8809;51.892;8.384;2024-01-07T00:11:38;100559.25;;;3.12;100.00
17383;BME280;8809;51.892;8.384;2024-01-07T00:14:05;100555.88;;;3.13;100.00
17383;BME280;8809;51.892;8.384;2024-01-07T00:16:32;100569.00;;;3.16;100.00
17383;BME280;8809;51.892;8.384;2024-01-07T00:18:59;100568.66;;;3.12;100.00
17383;BME280;8809;51.892;8.384;2024-01-07T00:21:28;100576.28;;;3.10;100.00
17383;BME280;8809;51.892;8.384;2024-01-07T00:23:54;100581.53;;;3.12;100.00
17383;BME280;8809;51.892;8.384;2024-01-07T00:26:21;100586.34;;;3.19;100.00
17383;BME280;8809;51.892;8.384;2024-01-07T00:28:48;100589.63;;;3.16;100.00
17383;BME280;8809;51.892;8.384;2024-01-07T00:31:15;100587.94;;;3.17;100.00
17383;BME280;8809;51.892;8.384;2024-01-07T00:33:43;100595.31;;;3.24;100.00
17383;BME280;8809;51.892;8.384;2024-01-07T00:36:10;100600.13;;;3.19;100.00
17383;BME280;8809;51.892;8.384;2024-01-07T00:38:38;100607.44;;;3.13;100.00
17383;BME280;8809;51.892;8.384;2024-01-07T00:41:05;100605.97;;;3.17;100.00
17383;BME280;8809;51.892;8.384;2024-01-07T00:43:32;100593.88;;;3.16;100.00
17383;BME280;8809;51.892;8.384;2024-01-07T00:45:59;100603.59;;;3.20;100.00
17383;BME280;8809;51.892;8.384;2024-01-07T00:48:28;100608.59;;;3.30;100.00
17383;BME280;8809;51.892;8.384;2024-01-07T00:50:55;100595.59;;;3.28;100.00
17383;BME280;8809;51.892;8.384;2024-01-07T00:53:22;100600.75;;;3.28;100.00
17383;BME280;8809;51.892;8.384;2024-01-07T00:55:50;100612.69;;;3.15;100.00
17383;BME280;8809;51.892;8.384;2024-01-07T00:58:17;100613.72;;;3.17;100.00
17383;BME280;8809;51.892;8.384;2024-01-07T01:00:44;100613.16;;;3.09;100.00
17383;BME280;8809;51.892;8.384;2024-01-07T01:03:11;100610.00;;;3.13;100.00
17383;BME280;8809;51.892;8.384;2024-01-07T01:05:38;100617.16;;;3.17;100.00
17383;BME280;8809;51.892;8.384;2024-01-07T01:08:05;100620.63;;;3.18;100.00
17383;BME280;8809;51.892;8.384;2024-01-07T01:10:32;100613.84;;;3.07;100.00
17383;BME280;8809;51.892;8.384;2024-01-07T01:13:00;100629.38;;;3.08;100.00
17383;BME280;8809;51.892;8.384;2024-01-07T01:15:27;100620.44;;;3.03;100.00
17383;BME280;8809;51.892;8.384;2024-01-07T01:17:54;100631.00;;;3.06;100.00
17383;BME280;8809;51.892;8.384;2024-01-07T01:20:21;100625.25;;;2.98;100.00
17383;BME280;8809;51.892;8.384;2024-01-07T01:22:47;100636.94;;;2.93;100.00
17383;BME280;8809;51.892;8.384;2024-01-07T01:25:14;100633.34;;;2.91;100.00
17383;BME280;8809;51.892;8.384;2024-01-07T01:27:41;100646.22;;;2.91;100.00
17383;BME280;8809;51.892;8.384;2024-01-07T01:30:10;100652.03;;;2.89;100.00
17383;BME280;8809;51.892;8.384;2024-01-07T01:32:38;100653.72;;;2.88;100.00
17383;BME280;8809;51.892;8.384;2024-01-07T01:35:06;100650.47;;;2.91;100.00
17383;BME280;8809;51.892;8.384;2024-01-07T01:37:33;100655.53;;;2.89;100.00
17383;BME280;8809;51.892;8.384;2024-01-07T01:39:59;100664.38;;;2.93;100.00
17383;BME280;8809;51.892;8.384;2024-01-07T01:42:28;100659.91;;;2.90;100.00
17383;BME280;8809;51.892;8.384;2024-01-07T01:44:55;100667.50;;;2.89;100.00
17383;BME280;8809;51.892;8.384;2024-01-07T01:47:26;100663.25;;;2.89;100.00
17383;BME280;8809;51.892;8.384;2024-01-07T01:49:53;100670.44;;;2.82;100.00
17383;BME280;8809;51.892;8.384;2024-01-07T01:52:20;100668.97;;;2.74;100.00
17383;BME280;8809;51.892;8.384;2024-01-07T01:54:47;100680.97;;;2.73;100.00
17383;BME280;8809;51.892;8.384;2024-01-07T01:57:17;100674.34;;;2.65;100.00
17383;BME280;8809;51.892;8.384;2024-01-07T01:59:46;100678.38;;;2.61;100.00
17383;BME280;8809;51.892;8.384;2024-01-07T02:02:13;100677.59;;;2.63;100.00
17383;BME280;8809;51.892;8.384;2024-01-07T02:04:42;100679.38;;;2.64;100.00
17383;BME280;8809;51.892;8.384;2024-01-07T02:07:09;100681.63;;;2.71;100.00
17383;BME280;8809;51.892;8.384;2024-01-07T02:09:36;100691.16;;;2.72;100.00
17383;BME280;8809;51.892;8.384;2024-01-07T02:12:04;100691.50;;;2.76;100.00
17383;BME280;8809;51.892;8.384;2024-01-07T02:14:31;100697.31;;;2.74;100.00
17383;BME280;8809;51.892;8.384;2024-01-07T02:16:59;100695.97;;;2.67;100.00
17383;BME280;8809;51.892;8.384;2024-01-07T02:19:28;100699.44;;;2.68;100.00
17383;BME280;8809;51.892;8.384;2024-01-07T02:21:56;100690.94;;;2.69;100.00
17383;BME280;8809;51.892;8.384;2024-01-07T02:24:24;100693.63;;;2.58;100.00
17383;BME280;8809;51.892;8.384;2024-01-07T02:26:51;100702.78;;;2.55;100.00
17383;BME280;8809;51.892;8.384;2024-01-07T02:29:18;100701.53;;;2.61;100.00
17383;BME280;8809;51.892;8.384;2024-01-07T02:31:45;100704.81;;;2.59;100.00
17383;BME280;8809;51.892;8.384;2024-01-07T02:34:12;100717.00;;;2.61;100.00
17383;BME280;8809;51.892;8.384;2024-01-07T02:36:39;100705.59;;;2.58;100.00
17383;BME280;8809;51.892;8.384;2024-01-07T02:39:06;100710.06;;;2.60;100.00
17383;BME280;8809;51.892;8.384;2024-01-07T02:41:34;100710.94;;;2.61;100.00
17383;BME280;8809;51.892;8.384;2024-01-07T02:44:01;100712.63;;;2.60;100.00
17383;BME280;8809;51.892;8.384;2024-01-07T02:46:30;100715.19;;;2.60;100.00
17383;BME280;8809;51.892;8.384;2024-01-07T02:48:56;100718.88;;;2.52;100.00
17383;BME280;8809;51.892;8.384;2024-01-07T02:51:23;100717.56;;;2.57;100.00
17383;BME280;8809;51.892;8.384;2024-01-07T02:53:50;100719.56;;;2.61;100.00
17383;BME280;8809;51.892;8.384;2024-01-07T02:56:17;100723.75;;;2.59;100.00
17383;BME280;8809;51.892;8.384;2024-01-07T02:58:45;100722.84;;;2.59;100.00
17383;BME280;8809;51.892;8.384;2024-01-07T03:01:12;100726.19;;;2.58;100.00
17383;BME280;8809;51.892;8.384;2024-01-07T03:03:39;100727.31;;;2.61;100.00
17383;BME280;8809;51.892;8.384;2024-01-07T03:06:06;100734.13;;;2.49;100.00
17383;BME280;8809;51.892;8.384;2024-01-07T03:08:34;100732.88;;;2.44;100.00
17383;BME280;8809;51.892;8.384;2024-01-07T03:11:04;100734.44;;;2.42;100.00
17383;BME280;8809;51.892;8.384;2024-01-07T03:13:32;100728.50;;;2.43;100.00
17383;BME280;8809;51.892;8.384;2024-01-07T03:16:00;100732.41;;;2.38;100.00
17383;BME280;8809;51.892;8.384;2024-01-07T03:18:27;100742.16;;;2.42;100.00
17383;BME280;8809;51.892;8.384;2024-01-07T03:20:55;100747.63;;;2.35;100.00
17383;BME280;8809;51.892;8.384;2024-01-07T03:23:22;100739.91;;;2.35;100.00
17383;BME280;8809;51.892;8.384;2024-01-07T03:25:48;100743.00;;;2.31;100.00
17383;BME280;8809;51.892;8.384;2024-01-07T03:28:15;100739.44;;;2.29;100.00
17383;BME280;8809;51.892;8.384;2024-01-07T03:30:42;100744.72;;;2.31;100.00
17383;BME280;8809;51.892;8.384;2024-01-07T03:33:11;100756.13;;;2.34;100.00
17383;BME280;8809;51.892;8.384;2024-01-07T03:35:37;100754.91;;;2.29;100.00
17383;BME280;8809;51.892;8.384;2024-01-07T03:38:05;100759.56;;;2.23;100.00
17383;BME280;8809;51.892;8.384;2024-01-07T03:40:32;100760.44;;;2.23;100.00
17383;BME280;8809;51.892;8.384;2024-01-07T03:42:58;100763.91;;;2.24;100.00
17383;BME280;8809;51.892;8.384;2024-01-07T03:45:26;100767.50;;;2.26;100.00
17383;BME280;8809;51.892;8.384;2024-01-07T03:47:52;100763.03;;;2.23;100.00
17383;BME280;8809;51.892;8.384;2024-01-07T03:50:21;100774.47;;;2.27;100.00
17383;BME280;8809;51.892;8.384;2024-01-07T03:52:47;100773.25;;;2.34;100.00
17383;BME280;8809;51.892;8.384;2024-01-07T03:55:14;100773.13;;;2.32;100.00
17383;BME280;8809;51.892;8.384;2024-01-07T03:57:41;100784.94;;;2.40;100.00
17383;BME280;8809;51.892;8.384;2024-01-07T04:00:10;100785.09;;;2.32;100.00
17383;BME280;8809;51.892;8.384;2024-01-07T04:02:37;100791.72;;;2.28;100.00
17383;BME280;8809;51.892;8.384;2024-01-07T04:05:04;100797.63;;;2.27;100.00
17383;BME280;8809;51.892;8.384;2024-01-07T04:07:32;100799.19;;;2.25;100.00
17383;BME280;8809;51.892;8.384;2024-01-07T04:09:59;100801.75;;;2.25;100.00
17383;BME280;8809;51.892;8.384;2024-01-07T04:12:26;100808.56;;;2.24;100.00
17383;BME280;8809;51.892;8.384;2024-01-07T04:14:53;100811.16;;;2.24;100.00
17383;BME280;8809;51.892;8.384;2024-01-07T04:17:20;100808.56;;;2.24;100.00
17383;BME280;8809;51.892;8.384;2024-01-07T04:19:47;100812.81;;;2.24;100.00
17383;BME280;8809;51.892;8.384;2024-01-07T04:22:13;100817.75;;;2.21;100.00
17383;BME280;8809;51.892;8.384;2024-01-07T04:24:42;100819.44;;;2.20;100.00
17383;BME280;8809;51.892;8.384;2024-01-07T04:27:08;100823.25;;;2.26;100.00
17383;BME280;8809;51.892;8.384;2024-01-07T04:29:35;100825.16;;;2.28;100.00
17383;BME280;8809;51.892;8.384;2024-01-07T04:32:03;100827.25;;;2.22;100.00
17383;BME280;8809;51.892;8.384;2024-01-07T04:34:29;100828.81;;;2.20;100.00
17383;BME280;8809;51.892;8.384;2024-01-07T04:36:56;100833.41;;;2.24;100.00
17383;BME280;8809;51.892;8.384;2024-01-07T04:39:23;100828.38;;;2.26;100.00
17383;BME280;8809;51.892;8.384;2024-01-07T04:41:52;100827.38;;;2.23;100.00
17383;BME280;8809;51.892;8.384;2024-01-07T04:44:19;100840.91;;;2.21;100.00
17383;BME280;8809;51.892;8.384;2024-01-07T04:46:47;100838.22;;;2.19;100.00
17383;BME280;8809;51.892;8.384;2024-01-07T04:49:16;100834.38;;;2.14;100.00
17383;BME280;8809;51.892;8.384;2024-01-07T04:51:43;100839.31;;;2.11;100.00
17383;BME280;8809;51.892;8.384;2024-01-07T04:54:09;100836.22;;;2.05;100.00
17383;BME280;8809;51.892;8.384;2024-01-07T04:56:36;100843.81;;;2.04;100.00
17383;BME280;8809;51.892;8.384;2024-01-07T04:59:04;100840.78;;;1.98;100.00
17383;BME280;8809;51.892;8.384;2024-01-07T05:01:32;100829.59;;;1.97;100.00
17383;BME280;8809;51.892;8.384;2024-01-07T05:03:59;100843.34;;;1.98;100.00
17383;BME280;8809;51.892;8.384;2024-01-07T05:06:26;100854.41;;;1.97;100.00
17383;BME280;8809;51.892;8.384;2024-01-07T05:08:52;100848.78;;;1.91;100.00
17383;BME280;8809;51.892;8.384;2024-01-07T05:11:19;100857.03;;;1.86;100.00
17383;BME280;8809;51.892;8.384;2024-01-07T05:13:46;100860.38;;;1.85;100.00
17383;BME280;8809;51.892;8.384;2024-01-07T05:16:19;100857.19;;;1.78;100.00
17383;BME280;8809;51.892;8.384;2024-01-07T05:18:46;100868.25;;;1.77;100.00
17383;BME280;8809;51.892;8.384;2024-01-07T05:21:15;100871.47;;;1.74;100.00
17383;BME280;8809;51.892;8.384;2024-01-07T05:23:41;100873.94;;;1.73;100.00
17383;BME280;8809;51.892;8.384;2024-01-07T05:26:08;100874.03;;;1.74;100.00
17383;BME280;8809;51.892;8.384;2024-01-07T05:28:36;100870.72;;;1.65;100.00
17383;BME280;8809;51.892;8.384;2024-01-07T05:31:03;100877.53;;;1.65;100.00
17383;BME280;8809;51.892;8.384;2024-01-07T05:33:31;100885.25;;;1.65;100.00
17383;BME280;8809;51.892;8.384;2024-01-07T05:35:59;100892.34;;;1.67;100.00
17383;BME280;8809;51.892;8.384;2024-01-07T05:38:25;100896.97;;;1.71;100.00
17383;BME280;8809;51.892;8.384;2024-01-07T05:40:52;100890.38;;;1.75;100.00
17383;BME280;8809;51.892;8.384;2024-01-07T05:43:19;100896.28;;;1.74;100.00
17383;BME280;8809;51.892;8.384;2024-01-07T05:45:46;100901.34;;;1.72;100.00
17383;BME280;8809;51.892;8.384;2024-01-07T05:48:13;100905.75;;;1.63;100.00
17383;BME280;8809;51.892;8.384;2024-01-07T05:50:41;100904.56;;;1.60;100.00
17383;BME280;8809;51.892;8.384;2024-01-07T05:53:08;100914.09;;;1.61;100.00
17383;BME280;8809;51.892;8.384;2024-01-07T05:55:35;100911.66;;;1.52;100.00
17383;BME280;8809;51.892;8.384;2024-01-07T05:58:02;100921.41;;;1.56;100.00
17383;BME280;8809;51.892;8.384;2024-01-07T06:00:29;100929.38;;;1.59;100.00
17383;BME280;8809;51.892;8.384;2024-01-07T06:02:56;100927.59;;;1.58;100.00
17383;BME280;8809;51.892;8.384;2024-01-07T06:05:23;100937.59;;;1.55;100.00
17383;BME280;8809;51.892;8.384;2024-01-07T06:07:51;100933.13;;;1.53;100.00
17383;BME280;8809;51.892;8.384;2024-01-07T06:10:18;100934.69;;;1.51;100.00
17383;BME280;8809;51.892;8.384;2024-01-07T06:12:46;100943.03;;;1.48;100.00
17383;BME280;8809;51.892;8.384;2024-01-07T06:15:13;100948.16;;;1.48;100.00
17383;BME280;8809;51.892;8.384;2024-01-07T06:17:40;100961.28;;;1.51;100.00
17383;BME280;8809;51.892;8.384;2024-01-07T06:20:08;100955.88;;;1.48;100.00
17383;BME280;8809;51.892;8.384;2024-01-07T06:22:37;100958.72;;;1.51;100.00
17383;BME280;8809;51.892;8.384;2024-01-07T06:25:06;100969.78;;;1.50;100.00
17383;BME280;8809;51.892;8.384;2024-01-07T06:27:34;100980.81;;;1.49;100.00
17383;BME280;8809;51.892;8.384;2024-01-07T06:30:01;100981.72;;;1.49;100.00
17383;BME280;8809;51.892;8.384;2024-01-07T06:32:29;100988.03;;;1.53;100.00
17383;BME280;8809;51.892;8.384;2024-01-07T06:34:57;100987.00;;;1.51;100.00
17383;BME280;8809;51.892;8.384;2024-01-07T06:37:24;100995.63;;;1.52;100.00
17383;BME280;8809;51.892;8.384;2024-01-07T06:39:58;101008.59;;;1.53;100.00
17383;BME280;8809;51.892;8.384;2024-01-07T06:42:26;101000.88;;;1.53;100.00
17383;BME280;8809;51.892;8.384;2024-01-07T06:44:53;101012.56;;;1.49;100.00
17383;BME280;8809;51.892;8.384;2024-01-07T06:47:19;101015.28;;;1.51;100.00
17383;BME280;8809;51.892;8.384;2024-01-07T06:49:46;101022.09;;;1.51;100.00
17383;BME280;8809;51.892;8.384;2024-01-07T06:52:13;101027.38;;;1.52;100.00
17383;BME280;8809;51.892;8.384;2024-01-07T06:54:40;101031.59;;;1.52;100.00
17383;BME280;8809;51.892;8.384;2024-01-07T06:57:07;101023.50;;;1.57;100.00
17383;BME280;8809;51.892;8.384;2024-01-07T06:59:35;101039.31;;;1.52;100.00
17383;BME280;8809;51.892;8.384;2024-01-07T07:02:03;101031.72;;;1.43;100.00
17383;BME280;8809;51.892;8.384;2024-01-07T07:04:29;101033.63;;;1.45;100.00
17383;BME280;8809;51.892;8.384;2024-01-07T07:06:56;101042.25;;;1.46;100.00
17383;BME280;8809;51.892;8.384;2024-01-07T07:09:25;101051.91;;;1.48;100.00
17383;BME280;8809;51.892;8.384;2024-01-07T07:11:52;101057.44;;;1.53;100.00
17383;BME280;8809;51.892;8.384;2024-01-07T07:14:19;101053.06;;;1.52;100.00
17383;BME280;8809;51.892;8.384;2024-01-07T07:16:47;101064.88;;;1.50;100.00
17383;BME280;8809;51.892;8.384;2024-01-07T07:19:14;101065.38;;;1.46;100.00
17383;BME280;8809;51.892;8.384;2024-01-07T07:21:43;101073.34;;;1.29;100.00
17383;BME280;8809;51.892;8.384;2024-01-07T07:24:09;101076.41;;;1.35;100.00
17383;BME280;8809;51.892;8.384;2024-01-07T07:26:36;101088.75;;;1.29;100.00
17383;BME280;8809;51.892;8.384;2024-01-07T07:29:06;101096.75;;;1.32;100.00
17383;BME280;8809;51.892;8.384;2024-01-07T07:31:35;101104.81;;;1.26;100.00
17383;BME280;8809;51.892;8.384;2024-01-07T07:34:04;101104.31;;;1.30;100.00
17383;BME280;8809;51.892;8.384;2024-01-07T07:36:32;101110.84;;;1.27;100.00
17383;BME280;8809;51.892;8.384;2024-01-07T07:38:59;101114.09;;;1.24;100.00
17383;BME280;8809;51.892;8.384;2024-01-07T07:41:26;101115.00;;;1.25;100.00
17383;BME280;8809;51.892;8.384;2024-01-07T07:43:54;101113.94;;;1.23;100.00
17383;BME280;8809;51.892;8.384;2024-01-07T07:46:21;101117.78;;;1.18;100.00
17383;BME280;8809;51.892;8.384;2024-01-07T07:48:47;101127.28;;;1.19;100.00
17383;BME280;8809;51.892;8.384;2024-01-07T07:51:16;101129.81;;;1.08;100.00
17383;BME280;8809;51.892;8.384;2024-01-07T07:53:43;101133.44;;;1.10;100.00
17383;BME280;8809;51.892;8.384;2024-01-07T07:56:10;101135.38;;;1.13;100.00
17383;BME280;8809;51.892;8.384;2024-01-07T07:58:37;101142.81;;;1.10;100.00
17383;BME280;8809;51.892;8.384;2024-01-07T08:01:04;101151.41;;;1.10;100.00
17383;BME280;8809;51.892;8.384;2024-01-07T08:03:32;101156.69;;;1.12;100.00
17383;BME280;8809;51.892;8.384;2024-01-07T08:05:59;101164.03;;;1.18;100.00
17383;BME280;8809;51.892;8.384;2024-01-07T08:08:27;101168.06;;;1.24;100.00
17383;BME280;8809;51.892;8.384;2024-01-07T08:10:54;101160.81;;;1.20;100.00
17383;BME280;8809;51.892;8.384;2024-01-07T08:13:21;101170.44;;;1.13;100.00
17383;BME280;8809;51.892;8.384;2024-01-07T08:15:47;101167.59;;;1.09;100.00
17383;BME280;8809;51.892;8.384;2024-01-07T08:18:16;101169.50;;;1.02;100.00
17383;BME280;8809;51.892;8.384;2024-01-07T08:20:43;101179.97;;;1.14;100.00
17383;BME280;8809;51.892;8.384;2024-01-07T08:23:10;101181.44;;;1.01;100.00
17383;BME280;8809;51.892;8.384;2024-01-07T08:25:38;101182.22;;;1.00;100.00
17383;BME280;8809;51.892;8.384;2024-01-07T08:28:07;101185.06;;;1.03;100.00
17383;BME280;8809;51.892;8.384;2024-01-07T08:30:34;101192.75;;;1.03;100.00
17383;BME280;8809;51.892;8.384;2024-01-07T08:33:01;101201.53;;;1.16;100.00
17383;BME280;8809;51.892;8.384;2024-01-07T08:35:28;101204.88;;;1.15;100.00
17383;BME280;8809;51.892;8.384;2024-01-07T08:37:55;101205.75;;;1.05;100.00
17383;BME280;8809;51.892;8.384;2024-01-07T08:40:21;101216.78;;;1.04;100.00
17383;BME280;8809;51.892;8.384;2024-01-07T08:42:50;101223.31;;;1.00;100.00
17383;BME280;8809;51.892;8.384;2024-01-07T08:45:17;101227.59;;;1.10;100.00
17383;BME280;8809;51.892;8.384;2024-01-07T08:47:44;101229.97;;;0.98;100.00
17383;BME280;8809;51.892;8.384;2024-01-07T08:50:11;101234.97;;;0.97;100.00
17383;BME280;8809;51.892;8.384;2024-01-07T08:52:39;101232.16;;;0.94;100.00
17383;BME280;8809;51.892;8.384;2024-01-07T08:55:06;101249.06;;;0.92;100.00
17383;BME280;8809;51.892;8.384;2024-01-07T08:57:35;101244.84;;;0.92;100.00
17383;BME280;8809;51.892;8.384;2024-01-07T09:00:06;101255.59;;;0.88;100.00
17383;BME280;8809;51.892;8.384;2024-01-07T09:02:34;101250.88;;;0.93;100.00
17383;BME280;8809;51.892;8.384;2024-01-07T09:05:01;101258.59;;;0.93;100.00
17383;BME280;8809;51.892;8.384;2024-01-07T09:07:28;101264.19;;;0.89;100.00
17383;BME280;8809;51.892;8.384;2024-01-07T09:09:55;101270.00;;;0.86;100.00
17383;BME280;8809;51.892;8.384;2024-01-07T09:12:24;101275.53;;;0.91;100.00
17383;BME280;8809;51.892;8.384;2024-01-07T09:14:51;101270.53;;;0.92;100.00
17383;BME280;8809;51.892;8.384;2024-01-07T09:17:20;101283.84;;;0.88;100.00
17383;BME280;8809;51.892;8.384;2024-01-07T09:19:48;101292.31;;;0.87;100.00
17383;BME280;8809;51.892;8.384;2024-01-07T09:22:16;101297.66;;;0.80;100.00
17383;BME280;8809;51.892;8.384;2024-01-07T09:24:43;101297.66;;;0.80;100.00
17383;BME280;8809;51.892;8.384;2024-01-07T09:27:10;101302.03;;;0.81;100.00
17383;BME280;8809;51.892;8.384;2024-01-07T09:29:37;101310.88;;;0.74;100.00
17383;BME280;8809;51.892;8.384;2024-01-07T09:32:04;101322.38;;;0.69;100.00
17383;BME280;8809;51.892;8.384;2024-01-07T09:34:33;101324.53;;;0.65;100.00
17383;BME280;8809;51.892;8.384;2024-01-07T09:37:01;101328.75;;;0.64;100.00
17383;BME280;8809;51.892;8.384;2024-01-07T09:39:30;101329.66;;;0.65;100.00
17383;BME280;8809;51.892;8.384;2024-01-07T09:41:57;101327.09;;;0.65;100.00
17383;BME280;8809;51.892;8.384;2024-01-07T09:44:25;101322.72;;;0.64;100.00
17383;BME280;8809;51.892;8.384;2024-01-07T09:46:54;101323.88;;;0.67;100.00
17383;BME280;8809;51.892;8.384;2024-01-07T09:49:21;101321.47;;;0.69;100.00
17383;BME280;8809;51.892;8.384;2024-01-07T09:51:53;101331.41;;;0.74;100.00
17383;BME280;8809;51.892;8.384;2024-01-07T09:54:26;101331.25;;;0.73;100.00
17383;BME280;8809;51.892;8.384;2024-01-07T09:56:57;101336.53;;;0.74;100.00
17383;BME280;8809;51.892;8.384;2024-01-07T09:59:27;101353.03;;;0.68;100.00
17383;BME280;8809;51.892;8.384;2024-01-07T10:01:55;101346.22;;;0.68;100.00
17383;BME280;8809;51.892;8.384;2024-01-07T10:04:22;101354.38;;;0.73;100.00
17383;BME280;8809;51.892;8.384;2024-01-07T10:06:51;101362.69;;;0.70;100.00
17383;BME280;8809;51.892;8.384;2024-01-07T10:09:20;101362.06;;;0.73;100.00
17383;BME280;8809;51.892;8.384;2024-01-07T10:11:49;101371.72;;;0.76;100.00
17383;BME280;8809;51.892;8.384;2024-01-07T10:14:16;101369.72;;;0.82;100.00
17383;BME280;8809;51.892;8.384;2024-01-07T10:16:43;101375.75;;;0.82;100.00
17383;BME280;8809;51.892;8.384;2024-01-07T10:19:10;101374.31;;;0.94;100.00
17383;BME280;8809;51.892;8.384;2024-01-07T10:21:37;101378.69;;;0.95;100.00
17383;BME280;8809;51.892;8.384;2024-01-07T10:24:09;101380.69;;;1.08;100.00
17383;BME280;8809;51.892;8.384;2024-01-07T10:26:37;101387.88;;;1.21;100.00
17383;BME280;8809;51.892;8.384;2024-01-07T10:29:04;101383.63;;;1.21;100.00
17383;BME280;8809;51.892;8.384;2024-01-07T10:31:31;101384.25;;;1.19;100.00
17383;BME280;8809;51.892;8.384;2024-01-07T10:34:08;101387.31;;;1.15;100.00
17383;BME280;8809;51.892;8.384;2024-01-07T10:36:39;101393.06;;;1.12;100.00
17383;BME280;8809;51.892;8.384;2024-01-07T10:39:06;101383.78;;;1.04;100.00
17383;BME280;8809;51.892;8.384;2024-01-07T10:41:37;101375.31;;;1.05;100.00
17383;BME280;8809;51.892;8.384;2024-01-07T10:44:04;101374.88;;;1.00;100.00
17383;BME280;8809;51.892;8.384;2024-01-07T10:46:31;101377.91;;;0.96;100.00
17383;BME280;8809;51.892;8.384;2024-01-07T10:49:00;101381.81;;;1.01;100.00
17383;BME280;8809;51.892;8.384;2024-01-07T10:51:34;101385.63;;;0.96;100.00
17383;BME280;8809;51.892;8.384;2024-01-07T10:54:01;101391.41;;;0.94;100.00
17383;BME280;8809;51.892;8.384;2024-01-07T10:56:33;101380.69;;;0.89;100.00
17383;BME280;8809;51.892;8.384;2024-01-07T10:59:06;101390.13;;;0.80;100.00
17383;BME280;8809;51.892;8.384;2024-01-07T11:01:34;101377.56;;;0.83;100.00
17383;BME280;8809;51.892;8.384;2024-01-07T11:04:04;101393.38;;;0.88;100.00
17383;BME280;8809;51.892;8.384;2024-01-07T11:06:38;101391.72;;;0.88;100.00
17383;BME280;8809;51.892;8.384;2024-01-07T11:09:17;101384.66;;;0.86;100.00
17383;BME280;8809;51.892;8.384;2024-01-07T11:11:45;101394.16;;;0.87;100.00
17383;BME280;8809;51.892;8.384;2024-01-07T11:14:37;101382.72;;;0.83;100.00
17383;BME280;8809;51.892;8.384;2024-01-07T11:17:05;101392.69;;;0.80;100.00
17383;BME280;8809;51.892;8.384;2024-01-07T11:19:32;101389.28;;;0.90;100.00
17383;BME280;8809;51.892;8.384;2024-01-07T11:22:23;101389.75;;;0.94;100.00
17383;BME280;8809;51.892;8.384;2024-01-07T11:24:53;101387.16;;;0.94;100.00
17383;BME280;8809;51.892;8.384;2024-01-07T11:27:22;101390.00;;;0.97;100.00
17383;BME280;8809;51.892;8.384;2024-01-07T11:29:57;101391.34;;;1.02;100.00
17383;BME280;8809;51.892;8.384;2024-01-07T11:32:28;101384.78;;;0.87;100.00
17383;BME280;8809;51.892;8.384;2024-01-07T11:34:56;101385.81;;;0.89;100.00
17383;BME280;8809;51.892;8.384;2024-01-07T11:37:25;101395.28;;;0.99;100.00
17383;BME280;8809;51.892;8.384;2024-01-07T11:39:55;101394.06;;;1.04;100.00
17383;BME280;8809;51.892;8.384;2024-01-07T11:42:22;101391.13;;;1.09;100.00
17383;BME280;8809;51.892;8.384;2024-01-07T11:44:51;101399.13;;;1.13;100.00
17383;BME280;8809;51.892;8.384;2024-01-07T11:47:20;101395.03;;;1.15;100.00
17383;BME280;8809;51.892;8.384;2024-01-07T11:49:48;101390.00;;;1.16;100.00
17383;BME280;8809;51.892;8.384;2024-01-07T11:52:15;101392.72;;;1.18;100.00
17383;BME280;8809;51.892;8.384;2024-01-07T11:54:42;101390.06;;;1.07;100.00
17383;BME280;8809;51.892;8.384;2024-01-07T11:57:10;101396.13;;;1.08;100.00
17383;BME280;8809;51.892;8.384;2024-01-07T11:59:37;101388.16;;;1.05;100.00
17383;BME280;8809;51.892;8.384;2024-01-07T12:02:04;101392.66;;;1.07;100.00
17383;BME280;8809;51.892;8.384;2024-01-07T12:04:33;101396.88;;;1.26;100.00
17383;BME280;8809;51.892;8.384;2024-01-07T12:07:01;101392.03;;;1.29;100.00
17383;BME280;8809;51.892;8.384;2024-01-07T12:09:29;101393.97;;;1.13;100.00
17383;BME280;8809;51.892;8.384;2024-01-07T12:11:56;101391.97;;;1.19;100.00
17383;BME280;8809;51.892;8.384;2024-01-07T12:14:23;101389.69;;;1.22;100.00
17383;BME280;8809;51.892;8.384;2024-01-07T12:16:51;101385.09;;;1.28;100.00
17383;BME280;8809;51.892;8.384;2024-01-07T12:19:18;101396.41;;;1.30;100.00
17383;BME280;8809;51.892;8.384;2024-01-07T12:21:47;101392.19;;;1.30;100.00
17383;BME280;8809;51.892;8.384;2024-01-07T12:24:14;101391.75;;;1.26;100.00
17383;BME280;8809;51.892;8.384;2024-01-07T12:26:41;101398.97;;;1.30;100.00
17383;BME280;8809;51.892;8.384;2024-01-07T12:29:12;101405.16;;;1.32;100.00
17383;BME280;8809;51.892;8.384;2024-01-07T12:31:39;101408.34;;;1.29;100.00
17383;BME280;8809;51.892;8.384;2024-01-07T12:34:07;101407.44;;;1.29;100.00
17383;BME280;8809;51.892;8.384;2024-01-07T12:36:38;101413.66;;;1.31;100.00
17383;BME280;8809;51.892;8.384;2024-01-07T12:39:07;101420.66;;;1.42;100.00
17383;BME280;8809;51.892;8.384;2024-01-07T12:41:34;101412.81;;;1.40;100.00
17383;BME280;8809;51.892;8.384;2024-01-07T12:44:01;101407.53;;;1.39;100.00
17383;BME280;8809;51.892;8.384;2024-01-07T12:46:28;101412.53;;;1.37;100.00
17383;BME280;8809;51.892;8.384;2024-01-07T12:48:57;101408.72;;;1.42;100.00
17383;BME280;8809;51.892;8.384;2024-01-07T12:51:24;101417.34;;;1.43;100.00
17383;BME280;8809;51.892;8.384;2024-01-07T12:53:51;101417.34;;;1.43;100.00
17383;BME280;8809;51.892;8.384;2024-01-07T12:56:21;101422.47;;;1.43;100.00
17383;BME280;8809;51.892;8.384;2024-01-07T12:58:48;101427.88;;;1.46;100.00
17383;BME280;8809;51.892;8.384;2024-01-07T13:01:15;101426.97;;;1.45;100.00
17383;BME280;8809;51.892;8.384;2024-01-07T13:03:41;101425.72;;;1.51;100.00